createdAt,value
2018-09-26T00:02:35.318Z,3.70
2018-09-26T00:05:03.939Z,3.70
2018-09-26T00:07:32.433Z,3.60
2018-09-26T00:10:00.916Z,3.60
2018-09-26T00:12:29.517Z,3.60
2018-09-26T00:14:58.071Z,3.60
2018-09-26T00:17:26.677Z,3.60
2018-09-26T00:19:55.238Z,3.60
2018-09-26T00:22:23.737Z,3.60
2018-09-26T00:24:52.366Z,3.60
2018-09-26T00:27:20.991Z,3.70
2018-09-26T00:29:49.510Z,3.70
2018-09-26T00:32:17.996Z,3.70
2018-09-26T00:34:46.507Z,3.60
2018-09-26T00:37:14.980Z,3.60
2018-09-26T00:39:43.466Z,3.60
2018-09-26T00:42:11.956Z,3.60
2018-09-26T00:44:40.555Z,3.60
2018-09-26T00:47:09.037Z,3.50
2018-09-26T00:49:37.716Z,3.50
2018-09-26T00:52:06.210Z,3.50
2018-09-26T00:54:34.774Z,3.50
2018-09-26T00:57:03.362Z,3.50
2018-09-26T00:59:31.852Z,3.40
2018-09-26T01:02:00.398Z,3.40
2018-09-26T01:04:28.910Z,3.40
2018-09-26T01:06:57.449Z,3.40
2018-09-26T01:09:25.891Z,3.40
2018-09-26T01:11:54.387Z,3.40
2018-09-26T01:14:22.799Z,3.40
2018-09-26T01:16:51.270Z,3.40
2018-09-26T01:19:19.710Z,3.30
2018-09-26T01:21:48.209Z,3.30
2018-09-26T01:24:16.666Z,3.30
2018-09-26T01:26:45.556Z,3.30
2018-09-26T01:29:14.011Z,3.20
2018-09-26T01:31:42.446Z,3.20
2018-09-26T01:34:10.996Z,3.20
2018-09-26T01:36:39.473Z,3.10
2018-09-26T01:39:08.898Z,3.10
2018-09-26T01:41:37.645Z,3.10
2018-09-26T01:44:06.252Z,3.10
2018-09-26T01:46:34.710Z,3.10
2018-09-26T01:49:03.260Z,3.10
2018-09-26T01:51:31.771Z,3.10
2018-09-26T01:54:00.286Z,3.10
2018-09-26T01:56:28.780Z,3.10
2018-09-26T01:58:57.267Z,3.10
2018-09-26T02:01:25.725Z,3.10
2018-09-26T02:03:54.188Z,3.00
2018-09-26T02:06:22.685Z,3.00
2018-09-26T02:08:51.159Z,3.00
2018-09-26T02:11:19.621Z,2.90
2018-09-26T02:13:48.085Z,3.00
2018-09-26T02:16:16.590Z,2.90
2018-09-26T02:18:45.253Z,3.00
2018-09-26T02:21:13.757Z,3.00
2018-09-26T02:23:42.331Z,3.00
2018-09-26T02:26:10.907Z,3.00
2018-09-26T02:28:39.587Z,3.00
2018-09-26T02:31:08.090Z,2.90
2018-09-26T02:33:36.521Z,2.90
2018-09-26T02:36:05.039Z,2.80
2018-09-26T02:38:33.557Z,2.80
2018-09-26T02:41:02.041Z,2.80
2018-09-26T02:43:30.570Z,2.80
2018-09-26T02:45:59.001Z,2.80
2018-09-26T02:48:32.611Z,2.80
2018-09-26T02:51:01.040Z,2.80
2018-09-26T02:53:29.505Z,2.80
2018-09-26T02:55:58.015Z,2.80
2018-09-26T02:58:26.494Z,2.70
2018-09-26T03:00:54.986Z,2.70
2018-09-26T03:03:23.433Z,2.70
2018-09-26T03:05:51.927Z,2.70
2018-09-26T03:08:20.353Z,2.60
2018-09-26T03:10:48.892Z,2.60
2018-09-26T03:13:17.371Z,2.60
2018-09-26T03:15:45.843Z,2.70
2018-09-26T03:18:14.514Z,2.70
2018-09-26T03:20:43.188Z,2.70
2018-09-26T03:23:11.678Z,2.80
2018-09-26T03:25:40.171Z,2.80
2018-09-26T03:28:08.631Z,2.80
2018-09-26T03:30:37.219Z,2.80
2018-09-26T03:33:05.886Z,2.90
2018-09-26T03:35:35.232Z,2.90
2018-09-26T03:38:03.919Z,2.90
2018-09-26T03:40:32.390Z,3.00
2018-09-26T03:43:00.806Z,2.90
2018-09-26T03:45:29.278Z,2.90
2018-09-26T03:47:57.712Z,2.90
2018-09-26T03:50:26.175Z,2.90
2018-09-26T03:52:54.687Z,2.90
2018-09-26T03:55:23.209Z,2.90
2018-09-26T03:57:51.833Z,2.90
2018-09-26T04:00:20.285Z,2.90
2018-09-26T04:02:48.719Z,2.90
2018-09-26T04:05:17.221Z,2.90
2018-09-26T04:07:45.654Z,2.80
2018-09-26T04:10:14.143Z,2.80
2018-09-26T04:12:42.714Z,2.80
2018-09-26T04:15:11.164Z,2.80
2018-09-26T04:17:39.597Z,2.80
2018-09-26T04:20:08.202Z,2.80
2018-09-26T04:22:36.770Z,2.80
2018-09-26T04:25:05.416Z,2.80
2018-09-26T04:27:33.948Z,2.80
2018-09-26T04:30:03.024Z,2.80
2018-09-26T04:32:31.511Z,2.80
2018-09-26T04:35:00.059Z,2.80
2018-09-26T04:37:28.748Z,2.80
2018-09-26T04:39:57.545Z,2.80
2018-09-26T04:42:26.016Z,2.80
2018-09-26T04:44:54.778Z,2.80
2018-09-26T04:47:23.301Z,2.70
2018-09-26T04:49:52.302Z,2.70
2018-09-26T04:52:21.015Z,2.70
2018-09-26T04:54:50.432Z,2.70
2018-09-26T04:57:18.919Z,2.70
2018-09-26T04:59:47.374Z,2.70
2018-09-26T05:02:15.846Z,2.70
2018-09-26T05:04:44.257Z,2.70
2018-09-26T05:07:12.756Z,2.80
2018-09-26T05:09:41.444Z,2.80
2018-09-26T05:12:09.925Z,2.70
2018-09-26T05:14:38.386Z,2.80
2018-09-26T05:17:07.000Z,2.80
2018-09-26T05:19:35.443Z,2.80
2018-09-26T05:22:03.897Z,2.80
2018-09-26T05:24:32.343Z,2.80
2018-09-26T05:27:00.801Z,2.80
2018-09-26T05:29:29.284Z,2.80
2018-09-26T05:31:57.755Z,2.80
2018-09-26T05:34:26.229Z,2.80
2018-09-26T05:36:54.714Z,2.80
2018-09-26T05:39:23.158Z,2.90
2018-09-26T05:41:51.681Z,2.90
2018-09-26T05:44:20.066Z,2.90
2018-09-26T05:46:48.531Z,2.90
2018-09-26T05:49:17.003Z,3.00
2018-09-26T05:51:45.482Z,3.00
2018-09-26T05:54:13.946Z,3.00
2018-09-26T05:56:42.422Z,3.10
2018-09-26T05:59:10.862Z,3.10
2018-09-26T06:01:39.330Z,3.20
2018-09-26T06:04:07.776Z,3.30
2018-09-26T06:06:36.284Z,3.40
2018-09-26T06:09:07.759Z,3.50
2018-09-26T06:11:36.297Z,3.50
2018-09-26T06:14:04.810Z,3.60
2018-09-26T06:16:33.241Z,3.60
2018-09-26T06:19:01.759Z,3.70
2018-09-26T06:21:30.157Z,3.80
2018-09-26T06:23:58.665Z,3.80
2018-09-26T06:26:27.091Z,3.90
2018-09-26T06:28:55.537Z,4.00
2018-09-26T06:31:24.008Z,4.00
2018-09-26T06:33:52.439Z,4.00
2018-09-26T06:36:20.909Z,4.10
2018-09-26T06:38:49.321Z,4.10
2018-09-26T06:41:17.949Z,4.20
2018-09-26T06:43:46.483Z,4.20
2018-09-26T06:46:14.964Z,4.30
2018-09-26T06:48:43.405Z,4.30
2018-09-26T06:51:11.968Z,4.40
2018-09-26T06:53:40.480Z,4.50
2018-09-26T06:56:08.983Z,4.60
2018-09-26T06:58:37.421Z,4.70
2018-09-26T07:01:06.010Z,4.80
2018-09-26T07:03:34.455Z,4.90
2018-09-26T07:06:02.914Z,5.00
2018-09-26T07:08:31.360Z,5.10
2018-09-26T07:10:59.850Z,5.30
2018-09-26T07:13:28.329Z,5.40
2018-09-26T07:15:56.798Z,5.50
2018-09-26T07:18:25.233Z,5.60
2018-09-26T07:20:53.677Z,5.70
2018-09-26T07:23:22.151Z,5.80
2018-09-26T07:25:50.600Z,6.00
2018-09-26T07:28:19.050Z,6.20
2018-09-26T07:30:47.533Z,6.40
2018-09-26T07:33:16.008Z,6.50
2018-09-26T07:35:44.434Z,6.70
2018-09-26T07:38:12.890Z,6.70
2018-09-26T07:40:41.334Z,6.80
2018-09-26T07:43:09.790Z,6.90
2018-09-26T07:45:38.302Z,7.00
2018-09-26T07:48:06.868Z,7.10
2018-09-26T07:50:35.397Z,7.20
2018-09-26T07:53:04.002Z,7.30
2018-09-26T07:55:32.436Z,7.30
2018-09-26T07:58:00.940Z,7.50
2018-09-26T08:00:29.421Z,7.60
2018-09-26T08:02:57.864Z,7.70
2018-09-26T08:05:26.395Z,7.80
2018-09-26T08:07:54.899Z,7.80
2018-09-26T08:10:23.570Z,7.90
2018-09-26T08:12:52.069Z,8.00
2018-09-26T08:15:20.540Z,8.10
2018-09-26T08:17:49.005Z,8.20
2018-09-26T08:20:17.439Z,8.30
2018-09-26T08:22:45.922Z,8.40
2018-09-26T08:25:14.373Z,8.50
2018-09-26T08:27:42.842Z,8.70
2018-09-26T08:30:11.312Z,8.80
2018-09-26T08:32:39.795Z,8.90
2018-09-26T08:35:08.281Z,9.10
2018-09-26T08:37:36.790Z,9.20
2018-09-26T08:40:05.391Z,9.30
2018-09-26T08:42:33.911Z,9.50
2018-09-26T08:45:02.362Z,9.60
2018-09-26T08:47:30.870Z,9.70
2018-09-26T08:49:59.363Z,9.90
2018-09-26T08:52:27.852Z,10.10
2018-09-26T08:54:56.365Z,10.30
2018-09-26T08:57:25.204Z,10.40
2018-09-26T08:59:53.658Z,10.60
2018-09-26T09:02:22.096Z,10.80
2018-09-26T09:04:50.593Z,11.00
2018-09-26T09:07:19.123Z,11.30
2018-09-26T09:09:47.651Z,11.50
2018-09-26T09:12:16.100Z,11.70
2018-09-26T09:14:44.941Z,11.90
2018-09-26T09:17:13.287Z,12.10
2018-09-26T09:19:41.838Z,12.20
2018-09-26T09:22:10.279Z,12.50
2018-09-26T09:24:38.743Z,12.70
2018-09-26T09:27:07.185Z,13.00
2018-09-26T09:29:35.650Z,13.10
2018-09-26T09:32:04.081Z,13.20
2018-09-26T09:34:32.547Z,13.30
2018-09-26T09:37:01.021Z,13.50
2018-09-26T09:39:29.671Z,13.70
2018-09-26T09:41:58.139Z,14.00
2018-09-26T09:44:26.669Z,14.40
2018-09-26T09:46:55.145Z,14.60
2018-09-26T09:49:23.806Z,14.90
2018-09-26T09:51:52.477Z,15.30
2018-09-26T09:54:20.986Z,15.60
2018-09-26T09:56:49.458Z,15.80
2018-09-26T09:59:17.931Z,15.80
2018-09-26T10:01:46.390Z,15.80
2018-09-26T10:04:14.849Z,15.90
2018-09-26T10:06:43.294Z,16.10
2018-09-26T10:09:11.771Z,16.20
2018-09-26T10:11:40.201Z,16.50
2018-09-26T10:14:08.729Z,16.70
2018-09-26T10:16:37.162Z,16.80
2018-09-26T10:19:05.956Z,17.10
2018-09-26T10:21:34.444Z,17.20
2018-09-26T10:24:02.966Z,17.10
2018-09-26T10:26:31.466Z,17.20
2018-09-26T10:29:00.095Z,17.20
2018-09-26T10:31:28.517Z,17.30
2018-09-26T10:33:57.001Z,17.40
2018-09-26T10:36:25.439Z,17.50
2018-09-26T10:38:53.925Z,17.40
2018-09-26T10:41:22.367Z,17.50
2018-09-26T10:43:50.842Z,17.40
2018-09-26T10:46:19.256Z,17.50
2018-09-26T10:48:47.765Z,17.60
2018-09-26T10:51:16.220Z,17.90
2018-09-26T10:53:44.766Z,17.90
2018-09-26T10:56:13.238Z,18.00
2018-09-26T10:58:41.806Z,18.00
2018-09-26T11:01:10.299Z,17.90
2018-09-26T11:03:38.839Z,18.40
2018-09-26T11:06:07.597Z,18.40
2018-09-26T11:08:36.166Z,18.50
2018-09-26T11:11:04.638Z,18.80
2018-09-26T11:13:33.134Z,19.00
2018-09-26T11:16:01.620Z,19.00
2018-09-26T11:18:30.475Z,19.30
2018-09-26T11:20:58.904Z,19.70
2018-09-26T11:23:27.397Z,19.90
2018-09-26T11:25:55.853Z,19.90
2018-09-26T11:28:24.394Z,19.90
2018-09-26T11:30:52.944Z,20.00
2018-09-26T11:33:21.518Z,20.30
2018-09-26T11:35:49.962Z,20.50
2018-09-26T11:38:18.444Z,20.60
2018-09-26T11:40:46.896Z,20.70
2018-09-26T11:43:15.321Z,20.80
2018-09-26T11:45:43.822Z,20.60
2018-09-26T11:48:12.356Z,20.60
2018-09-26T11:50:40.893Z,20.40
2018-09-26T11:53:09.410Z,20.30
2018-09-26T11:55:37.931Z,20.20
2018-09-26T11:58:06.684Z,19.90
2018-09-26T12:00:35.137Z,19.80
2018-09-26T12:03:03.776Z,19.60
2018-09-26T12:05:32.270Z,19.60
2018-09-26T12:08:00.727Z,19.60
2018-09-26T12:10:29.246Z,19.50
2018-09-26T12:12:57.695Z,19.30
2018-09-26T12:15:26.191Z,19.30
2018-09-26T12:17:54.686Z,19.60
2018-09-26T12:20:23.287Z,19.60
2018-09-26T12:22:51.791Z,19.80
2018-09-26T12:25:20.491Z,20.00
2018-09-26T12:27:48.985Z,20.30
2018-09-26T12:30:19.559Z,20.60
2018-09-26T12:32:48.124Z,20.80
2018-09-26T12:35:16.883Z,21.00
2018-09-26T12:37:45.638Z,21.00
2018-09-26T12:40:14.221Z,20.80
2018-09-26T12:42:42.750Z,20.70
2018-09-26T12:45:11.263Z,20.50
2018-09-26T12:47:39.757Z,20.60
2018-09-26T12:50:08.260Z,20.70
2018-09-26T12:52:37.188Z,20.80
2018-09-26T12:55:05.701Z,20.70
2018-09-26T12:57:34.181Z,20.70
2018-09-26T13:00:02.653Z,20.70
2018-09-26T13:02:31.108Z,20.90
2018-09-26T13:04:59.619Z,20.80
2018-09-26T13:07:28.061Z,20.60
2018-09-26T13:09:56.505Z,20.20
2018-09-26T13:12:25.040Z,19.90
2018-09-26T13:14:53.461Z,19.80
2018-09-26T13:17:21.891Z,19.90
2018-09-26T13:19:50.383Z,20.10
2018-09-26T13:22:19.090Z,19.90
2018-09-26T13:24:47.715Z,19.70
2018-09-26T13:27:16.168Z,19.50
2018-09-26T13:29:44.648Z,19.40
2018-09-26T13:32:13.121Z,19.50
2018-09-26T13:34:41.699Z,19.60
2018-09-26T13:37:10.185Z,19.70
2018-09-26T13:39:38.688Z,19.60
2018-09-26T13:42:07.270Z,19.60
2018-09-26T13:44:35.768Z,19.70
2018-09-26T13:47:04.254Z,19.70
2018-09-26T13:49:32.770Z,19.70
2018-09-26T13:52:01.241Z,19.80
2018-09-26T13:54:29.796Z,19.80
2018-09-26T13:56:58.366Z,19.60
2018-09-26T13:59:27.052Z,19.40
2018-09-26T14:01:55.875Z,19.20
2018-09-26T14:04:24.510Z,19.00
2018-09-26T14:06:52.955Z,18.90
2018-09-26T14:09:21.534Z,18.80
2018-09-26T14:11:50.028Z,18.80
2018-09-26T14:14:18.525Z,18.90
2018-09-26T14:16:46.977Z,18.90
2018-09-26T14:19:15.455Z,19.00
2018-09-26T14:21:43.956Z,19.00
2018-09-26T14:24:12.466Z,19.00
2018-09-26T14:26:40.976Z,19.20
2018-09-26T14:29:09.457Z,19.20
2018-09-26T14:31:37.991Z,19.10
2018-09-26T14:34:06.758Z,18.90
2018-09-26T14:36:35.214Z,18.80
2018-09-26T14:39:04.840Z,18.60
2018-09-26T14:41:33.234Z,18.50
2018-09-26T14:44:01.665Z,18.50
2018-09-26T14:46:30.133Z,18.40
2018-09-26T14:48:58.578Z,18.30
2018-09-26T14:51:27.194Z,18.20
2018-09-26T14:53:55.656Z,18.10
2018-09-26T14:56:24.241Z,18.10
2018-09-26T14:58:52.605Z,18.00
2018-09-26T15:01:21.100Z,18.00
2018-09-26T15:03:49.537Z,18.00
2018-09-26T15:06:18.038Z,17.90
2018-09-26T15:08:46.586Z,17.90
2018-09-26T15:11:15.008Z,17.90
2018-09-26T15:13:43.460Z,17.80
2018-09-26T15:16:11.999Z,17.80
2018-09-26T15:18:40.532Z,17.80
2018-09-26T15:21:09.035Z,17.90
2018-09-26T15:23:37.585Z,18.00
2018-09-26T15:26:06.114Z,17.90
2018-09-26T15:28:34.674Z,17.80
2018-09-26T15:31:03.136Z,17.70
2018-09-26T15:33:31.626Z,17.70
2018-09-26T15:36:00.135Z,17.80
2018-09-26T15:38:28.609Z,17.70
2018-09-26T15:40:57.193Z,17.60
2018-09-26T15:43:25.650Z,17.60
2018-09-26T15:45:54.132Z,17.50
2018-09-26T15:48:22.611Z,17.50
2018-09-26T15:50:51.142Z,17.40
2018-09-26T15:53:19.704Z,17.40
2018-09-26T15:55:48.279Z,17.30
2018-09-26T15:58:16.776Z,17.30
2018-09-26T16:00:45.232Z,17.20
2018-09-26T16:03:13.705Z,17.20
2018-09-26T16:05:42.198Z,17.20
2018-09-26T16:08:10.754Z,17.10
2018-09-26T16:10:39.367Z,17.00
2018-09-26T16:13:07.841Z,17.00
2018-09-26T16:15:36.314Z,16.90
2018-09-26T16:18:05.753Z,16.80
2018-09-26T16:20:34.309Z,16.80
2018-09-26T16:23:02.806Z,16.70
2018-09-26T16:25:31.285Z,16.50
2018-09-26T16:28:03.473Z,16.40
2018-09-26T16:30:32.058Z,16.30
2018-09-26T16:33:00.522Z,16.20
2018-09-26T16:35:28.963Z,16.10
2018-09-26T16:37:57.511Z,15.90
2018-09-26T16:40:26.077Z,15.80
2018-09-26T16:42:54.547Z,15.70
2018-09-26T16:45:23.144Z,15.60
2018-09-26T16:47:51.983Z,15.40
2018-09-26T16:50:20.502Z,15.30
2018-09-26T16:52:49.026Z,15.20
2018-09-26T16:55:17.449Z,15.10
2018-09-26T16:57:45.917Z,14.90
2018-09-26T17:00:14.403Z,14.80
2018-09-26T17:02:42.881Z,14.70
2018-09-26T17:05:11.545Z,14.60
2018-09-26T17:07:40.041Z,14.40
2018-09-26T17:10:08.549Z,14.30
2018-09-26T17:12:37.038Z,14.20
2018-09-26T17:15:05.542Z,14.10
2018-09-26T17:17:34.182Z,14.00
2018-09-26T17:20:02.681Z,13.90
2018-09-26T17:22:31.174Z,13.70
2018-09-26T17:24:59.635Z,13.60
2018-09-26T17:27:28.093Z,13.60
2018-09-26T17:29:56.550Z,13.40
2018-09-26T17:32:25.663Z,13.30
2018-09-26T17:34:54.066Z,13.80
2018-09-26T17:37:22.546Z,13.10
2018-09-26T17:39:51.118Z,13.00
2018-09-26T17:42:19.807Z,12.90
2018-09-26T17:44:48.179Z,12.80
2018-09-26T17:47:16.710Z,12.70
2018-09-26T17:49:45.177Z,12.60
2018-09-26T17:52:13.923Z,12.50
2018-09-26T17:54:42.349Z,12.30
2018-09-26T17:57:10.829Z,12.20
2018-09-26T17:59:39.400Z,12.10
2018-09-26T18:02:07.886Z,12.00
2018-09-26T18:04:36.389Z,11.90
2018-09-26T18:07:05.099Z,11.80
2018-09-26T18:09:33.530Z,11.80
2018-09-26T18:12:02.284Z,11.70
2018-09-26T18:14:30.745Z,11.60
2018-09-26T18:16:59.248Z,11.60
2018-09-26T18:19:27.692Z,11.50
2018-09-26T18:21:56.393Z,11.40
2018-09-26T18:24:25.646Z,11.20
2018-09-26T18:26:54.145Z,11.20
2018-09-26T18:29:22.599Z,11.00
2018-09-26T18:31:52.503Z,11.00
2018-09-26T18:34:21.048Z,10.90
2018-09-26T18:36:51.399Z,10.80
2018-09-26T18:39:20.021Z,10.70
2018-09-26T18:41:50.142Z,10.70
2018-09-26T18:44:18.600Z,10.60
2018-09-26T18:46:47.222Z,10.60
2018-09-26T18:49:15.686Z,10.50
2018-09-26T18:51:44.152Z,10.40
2018-09-26T18:54:12.703Z,10.40
2018-09-26T18:56:41.181Z,10.30
2018-09-26T18:59:09.724Z,10.20
2018-09-26T19:01:38.234Z,10.20
2018-09-26T19:04:06.700Z,10.10
2018-09-26T19:06:35.208Z,10.10
2018-09-26T19:09:04.889Z,10.00
2018-09-26T19:11:33.559Z,10.00
2018-09-26T19:14:02.071Z,9.90
2018-09-26T19:16:30.571Z,9.90
2018-09-26T19:19:00.854Z,9.80
2018-09-26T19:21:29.623Z,9.70
2018-09-26T19:23:58.226Z,9.70
2018-09-26T19:26:27.622Z,9.70
2018-09-26T19:28:56.184Z,9.70
2018-09-26T19:31:24.691Z,9.70
2018-09-26T19:33:53.282Z,9.70
2018-09-26T19:36:21.806Z,9.70
2018-09-26T19:38:52.030Z,9.70
2018-09-26T19:41:20.464Z,9.70
2018-09-26T19:43:48.914Z,9.60
2018-09-26T19:46:17.386Z,9.60
2018-09-26T19:48:48.574Z,9.60
2018-09-26T19:51:17.134Z,9.60
2018-09-26T19:53:45.739Z,9.50
2018-09-26T19:56:14.320Z,9.50
2018-09-26T19:58:42.702Z,9.40
2018-09-26T20:01:11.571Z,9.40
2018-09-26T20:03:40.007Z,9.30
2018-09-26T20:06:08.478Z,9.20
2018-09-26T20:08:36.947Z,9.10
2018-09-26T20:11:05.499Z,9.00
2018-09-26T20:13:33.966Z,9.00
2018-09-26T20:16:02.428Z,9.00
2018-09-26T20:18:30.901Z,9.00
2018-09-26T20:20:59.317Z,9.00
2018-09-26T20:23:27.977Z,9.00
2018-09-26T20:25:56.313Z,8.90
2018-09-26T20:28:24.755Z,8.90
2018-09-26T20:30:53.283Z,8.80
2018-09-26T20:33:21.763Z,8.90
2018-09-26T20:35:50.296Z,8.90
2018-09-26T20:38:18.757Z,8.80
2018-09-26T20:40:47.211Z,8.80
2018-09-26T20:43:15.677Z,8.80
2018-09-26T20:45:44.161Z,8.70
2018-09-26T20:48:12.667Z,8.70
2018-09-26T20:50:41.145Z,8.70
2018-09-26T20:53:09.649Z,8.70
2018-09-26T20:55:38.085Z,8.60
2018-09-26T20:58:06.602Z,8.60
2018-09-26T21:00:35.081Z,8.60
2018-09-26T21:03:03.690Z,8.50
2018-09-26T21:05:32.195Z,8.50
2018-09-26T21:08:00.643Z,8.50
2018-09-26T21:10:29.149Z,8.50
2018-09-26T21:12:57.569Z,8.50
2018-09-26T21:15:26.035Z,8.50
2018-09-26T21:17:54.523Z,8.40
2018-09-26T21:20:23.003Z,8.40
2018-09-26T21:22:51.663Z,8.30
2018-09-26T21:25:20.122Z,8.30
2018-09-26T21:27:48.558Z,8.30
2018-09-26T21:30:17.027Z,8.30
2018-09-26T21:32:45.489Z,8.20
2018-09-26T21:35:14.003Z,8.20
2018-09-26T21:37:42.469Z,8.20
2018-09-26T21:40:10.937Z,8.10
2018-09-26T21:42:39.374Z,8.10
2018-09-26T21:45:07.936Z,8.00
2018-09-26T21:47:36.362Z,7.90
2018-09-26T21:50:04.997Z,8.00
2018-09-26T21:52:33.484Z,7.90
2018-09-26T21:55:02.001Z,8.00
2018-09-26T21:57:30.547Z,8.00
2018-09-26T21:59:59.012Z,7.90
2018-09-26T22:02:28.348Z,7.90
2018-09-26T22:04:56.844Z,7.90
2018-09-26T22:07:25.286Z,7.80
2018-09-26T22:09:53.760Z,7.70
2018-09-26T22:12:22.211Z,7.60
2018-09-26T22:14:50.779Z,7.60
2018-09-26T22:17:19.214Z,7.50
2018-09-26T22:19:47.625Z,7.50
2018-09-26T22:22:16.101Z,7.50
2018-09-26T22:24:44.534Z,7.50
2018-09-26T22:27:13.205Z,7.50
2018-09-26T22:29:41.660Z,7.50
2018-09-26T22:32:10.139Z,7.50
2018-09-26T22:34:38.565Z,7.50
2018-09-26T22:37:07.036Z,7.40
2018-09-26T22:39:35.475Z,7.40
2018-09-26T22:42:03.992Z,7.30
2018-09-26T22:44:32.440Z,7.30
2018-09-26T22:47:00.918Z,7.30
2018-09-26T22:49:29.350Z,7.20
2018-09-26T22:51:57.810Z,7.20
2018-09-26T22:54:26.271Z,7.10
2018-09-26T22:56:54.753Z,7.10
2018-09-26T22:59:23.316Z,7.10
2018-09-26T23:01:51.778Z,7.10
2018-09-26T23:04:20.227Z,7.00
2018-09-26T23:06:48.843Z,7.00
2018-09-26T23:09:17.293Z,7.00
2018-09-26T23:11:45.793Z,7.00
2018-09-26T23:14:14.301Z,7.00
2018-09-26T23:16:42.789Z,7.00
2018-09-26T23:19:11.217Z,7.00
2018-09-26T23:21:39.750Z,7.00
2018-09-26T23:24:08.224Z,6.90
2018-09-26T23:26:36.695Z,6.90
2018-09-26T23:29:05.161Z,6.90
2018-09-26T23:31:33.630Z,6.90
2018-09-26T23:34:02.075Z,6.80
2018-09-26T23:36:30.570Z,6.70
2018-09-26T23:38:58.999Z,6.70
2018-09-26T23:41:27.485Z,6.70
2018-09-26T23:43:55.952Z,6.70
2018-09-26T23:46:24.435Z,6.80
2018-09-26T23:48:52.862Z,6.80
2018-09-26T23:51:21.454Z,6.70
2018-09-26T23:53:50.069Z,6.70
2018-09-26T23:56:18.524Z,6.70
2018-09-26T23:58:46.948Z,6.60
